sensor_id;sensor_type;location;lat;lon;timestamp;P1;durP1;ratioP1;P2;durP2;ratioP2
32918;SDS011;19280;42.646;21.150;2023-02-22T00:00:27;23.33;;;10.68;;
32918;SDS011;19280;42.646;21.150;2023-02-22T00:03:19;18.90;;;9.40;;
32918;SDS011;19280;42.646;21.150;2023-02-22T00:08:19;17.90;;;10.18;;
32918;SDS011;19280;42.646;21.150;2023-02-22T00:10:45;21.45;;;11.05;;
32918;SDS011;19280;42.646;21.150;2023-02-22T00:13:15;23.00;;;11.52;;
32918;SDS011;19280;42.646;21.150;2023-02-22T00:15:41;28.88;;;11.40;;
32918;SDS011;19280;42.646;21.150;2023-02-22T00:18:09;28.25;;;13.68;;
32918;SDS011;19280;42.646;21.150;2023-02-22T00:20:35;21.98;;;12.07;;
32918;SDS011;19280;42.646;21.150;2023-02-22T00:23:05;28.67;;;13.77;;
32918;SDS011;19280;42.646;21.150;2023-02-22T00:25:32;23.00;;;12.48;;
32918;SDS011;19280;42.646;21.150;2023-02-22T00:27:58;26.10;;;12.05;;
32918;SDS011;19280;42.646;21.150;2023-02-22T00:30:26;22.58;;;12.85;;
32918;SDS011;19280;42.646;21.150;2023-02-22T00:32:53;31.08;;;15.43;;
32918;SDS011;19280;42.646;21.150;2023-02-22T00:35:20;34.28;;;16.20;;
32918;SDS011;19280;42.646;21.150;2023-02-22T00:37:47;33.28;;;17.27;;
32918;SDS011;19280;42.646;21.150;2023-02-22T00:40:15;39.85;;;17.90;;
32918;SDS011;19280;42.646;21.150;2023-02-22T00:42:41;30.35;;;15.07;;
32918;SDS011;19280;42.646;21.150;2023-02-22T00:45:08;33.42;;;16.63;;
32918;SDS011;19280;42.646;21.150;2023-02-22T00:47:34;31.40;;;16.10;;
32918;SDS011;19280;42.646;21.150;2023-02-22T00:50:00;29.98;;;14.90;;
32918;SDS011;19280;42.646;21.150;2023-02-22T00:52:26;26.30;;;14.07;;
32918;SDS011;19280;42.646;21.150;2023-02-22T00:54:53;27.10;;;13.45;;
32918;SDS011;19280;42.646;21.150;2023-02-22T00:57:20;22.67;;;11.73;;
32918;SDS011;19280;42.646;21.150;2023-02-22T00:59:46;21.40;;;11.02;;
32918;SDS011;19280;42.646;21.150;2023-02-22T01:02:12;22.90;;;10.73;;
32918;SDS011;19280;42.646;21.150;2023-02-22T01:04:38;18.90;;;10.60;;
32918;SDS011;19280;42.646;21.150;2023-02-22T01:07:04;21.15;;;11.02;;
32918;SDS011;19280;42.646;21.150;2023-02-22T01:09:31;23.08;;;10.60;;
32918;SDS011;19280;42.646;21.150;2023-02-22T01:11:57;19.77;;;10.52;;
32918;SDS011;19280;42.646;21.150;2023-02-22T01:14:23;18.85;;;10.05;;
32918;SDS011;19280;42.646;21.150;2023-02-22T01:16:56;19.25;;;10.38;;
32918;SDS011;19280;42.646;21.150;2023-02-22T01:19:22;19.67;;;11.45;;
32918;SDS011;19280;42.646;21.150;2023-02-22T01:21:48;22.02;;;10.85;;
32918;SDS011;19280;42.646;21.150;2023-02-22T01:24:15;22.35;;;11.05;;
32918;SDS011;19280;42.646;21.150;2023-02-22T01:26:42;21.05;;;10.50;;
32918;SDS011;19280;42.646;21.150;2023-02-22T01:29:12;23.00;;;10.68;;
32918;SDS011;19280;42.646;21.150;2023-02-22T01:31:39;21.83;;;10.20;;
32918;SDS011;19280;42.646;21.150;2023-02-22T01:34:08;20.80;;;10.95;;
32918;SDS011;19280;42.646;21.150;2023-02-22T01:36:34;22.50;;;11.02;;
32918;SDS011;19280;42.646;21.150;2023-02-22T01:39:00;29.65;;;11.18;;
32918;SDS011;19280;42.646;21.150;2023-02-22T01:41:26;24.10;;;10.60;;
32918;SDS011;19280;42.646;21.150;2023-02-22T01:43:52;23.27;;;11.30;;
32918;SDS011;19280;42.646;21.150;2023-02-22T01:46:22;26.08;;;11.80;;
32918;SDS011;19280;42.646;21.150;2023-02-22T01:48:51;17.95;;;9.50;;
32918;SDS011;19280;42.646;21.150;2023-02-22T01:51:20;19.98;;;9.88;;
32918;SDS011;19280;42.646;21.150;2023-02-22T01:56:15;19.52;;;9.35;;
32918;SDS011;19280;42.646;21.150;2023-02-22T01:58:43;18.33;;;8.25;;
32918;SDS011;19280;42.646;21.150;2023-02-22T02:01:11;14.23;;;7.47;;
32918;SDS011;19280;42.646;21.150;2023-02-22T02:03:38;20.35;;;9.68;;
32918;SDS011;19280;42.646;21.150;2023-02-22T02:06:09;16.23;;;8.40;;
32918;SDS011;19280;42.646;21.150;2023-02-22T02:11:14;19.40;;;8.57;;
32918;SDS011;19280;42.646;21.150;2023-02-22T02:13:40;16.08;;;8.38;;
32918;SDS011;19280;42.646;21.150;2023-02-22T02:16:06;19.58;;;9.07;;
32918;SDS011;19280;42.646;21.150;2023-02-22T02:18:32;24.42;;;10.30;;
32918;SDS011;19280;42.646;21.150;2023-02-22T02:28:46;20.67;;;9.65;;
32918;SDS011;19280;42.646;21.150;2023-02-22T02:33:59;19.65;;;10.00;;
32918;SDS011;19280;42.646;21.150;2023-02-22T02:36:32;16.40;;;9.05;;
32918;SDS011;19280;42.646;21.150;2023-02-22T02:41:31;22.75;;;9.77;;
32918;SDS011;19280;42.646;21.150;2023-02-22T02:43:59;18.75;;;8.43;;
32918;SDS011;19280;42.646;21.150;2023-02-22T02:49:00;18.75;;;8.52;;
32918;SDS011;19280;42.646;21.150;2023-02-22T02:51:28;14.45;;;7.88;;
32918;SDS011;19280;42.646;21.150;2023-02-22T02:53:55;18.58;;;8.05;;
32918;SDS011;19280;42.646;21.150;2023-02-22T02:56:22;16.27;;;8.85;;
32918;SDS011;19280;42.646;21.150;2023-02-22T02:58:49;16.85;;;9.30;;
32918;SDS011;19280;42.646;21.150;2023-02-22T03:02:03;29.17;;;11.18;;
32918;SDS011;19280;42.646;21.150;2023-02-22T03:04:11;25.02;;;11.45;;
32918;SDS011;19280;42.646;21.150;2023-02-22T03:07:07;21.83;;;10.43;;
32918;SDS011;19280;42.646;21.150;2023-02-22T03:09:40;27.27;;;12.93;;
32918;SDS011;19280;42.646;21.150;2023-02-22T03:12:27;29.40;;;14.23;;
32918;SDS011;19280;42.646;21.150;2023-02-22T03:15:08;26.88;;;12.57;;
32918;SDS011;19280;42.646;21.150;2023-02-22T03:22:37;27.67;;;13.40;;
32918;SDS011;19280;42.646;21.150;2023-02-22T03:25:10;27.13;;;12.82;;
32918;SDS011;19280;42.646;21.150;2023-02-22T03:27:49;23.70;;;13.20;;
32918;SDS011;19280;42.646;21.150;2023-02-22T03:32:45;29.58;;;12.43;;
32918;SDS011;19280;42.646;21.150;2023-02-22T03:35:22;25.50;;;13.07;;
32918;SDS011;19280;42.646;21.150;2023-02-22T03:37:52;33.15;;;12.93;;
32918;SDS011;19280;42.646;21.150;2023-02-22T03:40:24;28.23;;;13.82;;
32918;SDS011;19280;42.646;21.150;2023-02-22T03:42:52;26.88;;;13.25;;
32918;SDS011;19280;42.646;21.150;2023-02-22T03:45:20;24.63;;;10.95;;
32918;SDS011;19280;42.646;21.150;2023-02-22T03:47:48;21.15;;;10.68;;
32918;SDS011;19280;42.646;21.150;2023-02-22T03:50:18;18.58;;;8.88;;
32918;SDS011;19280;42.646;21.150;2023-02-22T03:52:45;21.48;;;8.30;;
32918;SDS011;19280;42.646;21.150;2023-02-22T03:55:11;20.33;;;8.88;;
32918;SDS011;19280;42.646;21.150;2023-02-22T03:57:42;17.48;;;8.07;;
32918;SDS011;19280;42.646;21.150;2023-02-22T04:00:11;22.40;;;8.48;;
32918;SDS011;19280;42.646;21.150;2023-02-22T04:02:39;23.23;;;9.50;;
32918;SDS011;19280;42.646;21.150;2023-02-22T04:05:05;16.13;;;8.40;;
32918;SDS011;19280;42.646;21.150;2023-02-22T04:07:31;20.48;;;8.20;;
32918;SDS011;19280;42.646;21.150;2023-02-22T04:09:57;20.67;;;9.18;;
32918;SDS011;19280;42.646;21.150;2023-02-22T04:12:23;21.80;;;9.48;;
32918;SDS011;19280;42.646;21.150;2023-02-22T04:14:49;30.15;;;10.50;;
32918;SDS011;19280;42.646;21.150;2023-02-22T04:17:15;23.60;;;9.57;;
32918;SDS011;19280;42.646;21.150;2023-02-22T04:19:41;23.73;;;10.73;;
32918;SDS011;19280;42.646;21.150;2023-02-22T04:22:09;24.40;;;10.48;;
32918;SDS011;19280;42.646;21.150;2023-02-22T04:24:35;24.33;;;10.25;;
32918;SDS011;19280;42.646;21.150;2023-02-22T04:27:02;24.88;;;9.70;;
32918;SDS011;19280;42.646;21.150;2023-02-22T04:29:28;24.42;;;10.38;;
32918;SDS011;19280;42.646;21.150;2023-02-22T04:31:54;25.55;;;10.13;;
32918;SDS011;19280;42.646;21.150;2023-02-22T04:34:20;39.72;;;11.05;;
32918;SDS011;19280;42.646;21.150;2023-02-22T04:36:46;28.38;;;10.52;;
32918;SDS011;19280;42.646;21.150;2023-02-22T04:39:12;46.50;;;12.40;;
32918;SDS011;19280;42.646;21.150;2023-02-22T04:41:39;31.20;;;12.18;;
32918;SDS011;19280;42.646;21.150;2023-02-22T04:44:05;33.28;;;12.15;;
32918;SDS011;19280;42.646;21.150;2023-02-22T04:46:31;28.60;;;11.43;;
32918;SDS011;19280;42.646;21.150;2023-02-22T04:48:57;33.60;;;11.63;;
32918;SDS011;19280;42.646;21.150;2023-02-22T04:51:23;31.67;;;10.88;;
32918;SDS011;19280;42.646;21.150;2023-02-22T04:53:50;30.30;;;10.77;;
32918;SDS011;19280;42.646;21.150;2023-02-22T04:56:16;25.38;;;11.07;;
32918;SDS011;19280;42.646;21.150;2023-02-22T04:58:42;35.70;;;10.80;;
32918;SDS011;19280;42.646;21.150;2023-02-22T05:01:08;27.80;;;10.65;;
32918;SDS011;19280;42.646;21.150;2023-02-22T05:03:37;28.88;;;10.27;;
32918;SDS011;19280;42.646;21.150;2023-02-22T05:06:03;29.27;;;10.48;;
32918;SDS011;19280;42.646;21.150;2023-02-22T05:08:29;37.60;;;12.10;;
32918;SDS011;19280;42.646;21.150;2023-02-22T05:10:55;39.22;;;12.20;;
32918;SDS011;19280;42.646;21.150;2023-02-22T05:13:21;44.70;;;13.98;;
32918;SDS011;19280;42.646;21.150;2023-02-22T05:15:50;34.70;;;14.77;;
32918;SDS011;19280;42.646;21.150;2023-02-22T05:18:16;44.60;;;16.58;;
32918;SDS011;19280;42.646;21.150;2023-02-22T05:20:42;30.33;;;12.55;;
32918;SDS011;19280;42.646;21.150;2023-02-22T05:23:08;35.33;;;15.68;;
32918;SDS011;19280;42.646;21.150;2023-02-22T05:25:34;33.10;;;13.15;;
32918;SDS011;19280;42.646;21.150;2023-02-22T05:28:01;38.47;;;14.80;;
32918;SDS011;19280;42.646;21.150;2023-02-22T05:30:29;42.55;;;16.90;;
32918;SDS011;19280;42.646;21.150;2023-02-22T05:32:55;43.00;;;18.17;;
32918;SDS011;19280;42.646;21.150;2023-02-22T05:35:23;51.58;;;19.00;;
32918;SDS011;19280;42.646;21.150;2023-02-22T05:37:49;53.65;;;18.95;;
32918;SDS011;19280;42.646;21.150;2023-02-22T05:40:16;46.17;;;18.83;;
32918;SDS011;19280;42.646;21.150;2023-02-22T05:42:42;49.97;;;18.58;;
32918;SDS011;19280;42.646;21.150;2023-02-22T05:45:11;55.75;;;18.13;;
32918;SDS011;19280;42.646;21.150;2023-02-22T05:47:37;54.15;;;17.25;;
32918;SDS011;19280;42.646;21.150;2023-02-22T05:50:03;44.00;;;18.77;;
32918;SDS011;19280;42.646;21.150;2023-02-22T05:52:29;85.15;;;30.25;;
32918;SDS011;19280;42.646;21.150;2023-02-22T05:54:56;118.10;;;39.97;;
32918;SDS011;19280;42.646;21.150;2023-02-22T05:57:22;168.90;;;56.90;;
32918;SDS011;19280;42.646;21.150;2023-02-22T05:59:48;188.60;;;63.95;;
32918;SDS011;19280;42.646;21.150;2023-02-22T06:02:14;157.48;;;54.75;;
32918;SDS011;19280;42.646;21.150;2023-02-22T06:04:43;103.88;;;41.63;;
32918;SDS011;19280;42.646;21.150;2023-02-22T06:07:09;104.40;;;42.88;;
32918;SDS011;19280;42.646;21.150;2023-02-22T06:09:35;83.20;;;33.22;;
32918;SDS011;19280;42.646;21.150;2023-02-22T06:12:01;73.35;;;30.20;;
32918;SDS011;19280;42.646;21.150;2023-02-22T06:14:27;66.43;;;30.23;;
32918;SDS011;19280;42.646;21.150;2023-02-22T06:16:55;82.95;;;31.27;;
32918;SDS011;19280;42.646;21.150;2023-02-22T06:19:25;68.00;;;30.02;;
32918;SDS011;19280;42.646;21.150;2023-02-22T06:21:55;93.38;;;38.80;;
32918;SDS011;19280;42.646;21.150;2023-02-22T06:26:56;75.65;;;35.00;;
32918;SDS011;19280;42.646;21.150;2023-02-22T06:29:23;73.70;;;34.05;;
32918;SDS011;19280;42.646;21.150;2023-02-22T06:31:49;67.55;;;32.67;;
32918;SDS011;19280;42.646;21.150;2023-02-22T06:34:16;93.60;;;47.92;;
32918;SDS011;19280;42.646;21.150;2023-02-22T06:36:42;140.18;;;64.32;;
32918;SDS011;19280;42.646;21.150;2023-02-22T06:39:08;149.48;;;66.03;;
32918;SDS011;19280;42.646;21.150;2023-02-22T06:41:39;130.95;;;60.50;;
32918;SDS011;19280;42.646;21.150;2023-02-22T06:44:06;119.65;;;58.17;;
32918;SDS011;19280;42.646;21.150;2023-02-22T06:46:32;124.88;;;58.55;;
32918;SDS011;19280;42.646;21.150;2023-02-22T06:48:59;113.35;;;54.78;;
32918;SDS011;19280;42.646;21.150;2023-02-22T06:51:25;98.97;;;49.00;;
32918;SDS011;19280;42.646;21.150;2023-02-22T06:53:52;89.45;;;41.72;;
32918;SDS011;19280;42.646;21.150;2023-02-22T06:56:18;59.17;;;34.08;;
32918;SDS011;19280;42.646;21.150;2023-02-22T06:58:44;74.22;;;34.10;;
32918;SDS011;19280;42.646;21.150;2023-02-22T07:01:11;70.00;;;37.15;;
32918;SDS011;19280;42.646;21.150;2023-02-22T07:03:37;86.45;;;46.47;;
32918;SDS011;19280;42.646;21.150;2023-02-22T07:06:03;66.80;;;38.88;;
32918;SDS011;19280;42.646;21.150;2023-02-22T07:08:30;62.65;;;38.53;;
32918;SDS011;19280;42.646;21.150;2023-02-22T07:10:56;64.47;;;40.08;;
32918;SDS011;19280;42.646;21.150;2023-02-22T07:13:22;62.22;;;39.20;;
32918;SDS011;19280;42.646;21.150;2023-02-22T07:15:48;73.63;;;38.35;;
32918;SDS011;19280;42.646;21.150;2023-02-22T07:18:14;66.15;;;35.30;;
32918;SDS011;19280;42.646;21.150;2023-02-22T07:20:40;60.05;;;34.78;;
32918;SDS011;19280;42.646;21.150;2023-02-22T07:23:06;63.42;;;37.92;;
32918;SDS011;19280;42.646;21.150;2023-02-22T07:25:34;64.07;;;38.15;;
32918;SDS011;19280;42.646;21.150;2023-02-22T07:28:02;47.90;;;29.17;;
32918;SDS011;19280;42.646;21.150;2023-02-22T07:30:35;47.78;;;26.20;;
32918;SDS011;19280;42.646;21.150;2023-02-22T07:35:28;40.83;;;24.55;;
32918;SDS011;19280;42.646;21.150;2023-02-22T07:37:54;53.33;;;23.58;;
32918;SDS011;19280;42.646;21.150;2023-02-22T07:40:21;39.72;;;21.98;;
32918;SDS011;19280;42.646;21.150;2023-02-22T07:43:00;40.63;;;22.80;;
32918;SDS011;19280;42.646;21.150;2023-02-22T07:45:28;40.13;;;21.02;;
32918;SDS011;19280;42.646;21.150;2023-02-22T07:47:54;31.35;;;15.52;;
32918;SDS011;19280;42.646;21.150;2023-02-22T07:50:21;27.52;;;14.27;;
32918;SDS011;19280;42.646;21.150;2023-02-22T07:52:48;21.00;;;11.73;;
32918;SDS011;19280;42.646;21.150;2023-02-22T07:55:15;20.77;;;11.77;;
32918;SDS011;19280;42.646;21.150;2023-02-22T07:57:42;21.08;;;10.65;;
32918;SDS011;19280;42.646;21.150;2023-02-22T08:02:38;20.85;;;10.90;;
32918;SDS011;19280;42.646;21.150;2023-02-22T08:05:05;18.27;;;10.80;;
32918;SDS011;19280;42.646;21.150;2023-02-22T08:07:31;19.33;;;9.70;;
32918;SDS011;19280;42.646;21.150;2023-02-22T08:09:57;26.23;;;11.05;;
32918;SDS011;19280;42.646;21.150;2023-02-22T08:12:23;18.63;;;9.43;;
32918;SDS011;19280;42.646;21.150;2023-02-22T08:14:49;22.48;;;9.02;;
32918;SDS011;19280;42.646;21.150;2023-02-22T08:17:15;19.92;;;8.90;;
32918;SDS011;19280;42.646;21.150;2023-02-22T08:19:41;23.13;;;9.07;;
32918;SDS011;19280;42.646;21.150;2023-02-22T08:22:07;19.02;;;10.23;;
32918;SDS011;19280;42.646;21.150;2023-02-22T08:24:33;23.67;;;12.75;;
32918;SDS011;19280;42.646;21.150;2023-02-22T08:26:59;28.13;;;15.70;;
32918;SDS011;19280;42.646;21.150;2023-02-22T08:29:25;28.33;;;15.98;;
32918;SDS011;19280;42.646;21.150;2023-02-22T08:31:57;18.20;;;11.57;;
32918;SDS011;19280;42.646;21.150;2023-02-22T08:34:23;15.60;;;9.80;;
32918;SDS011;19280;42.646;21.150;2023-02-22T08:36:49;10.40;;;7.00;;
32918;SDS011;19280;42.646;21.150;2023-02-22T08:39:15;15.93;;;8.07;;
32918;SDS011;19280;42.646;21.150;2023-02-22T08:41:42;22.40;;;10.30;;
32918;SDS011;19280;42.646;21.150;2023-02-22T08:44:09;15.98;;;8.25;;
32918;SDS011;19280;42.646;21.150;2023-02-22T08:46:35;20.65;;;7.88;;
32918;SDS011;19280;42.646;21.150;2023-02-22T08:49:01;14.93;;;8.20;;
32918;SDS011;19280;42.646;21.150;2023-02-22T08:51:27;16.33;;;8.10;;
32918;SDS011;19280;42.646;21.150;2023-02-22T08:53:53;17.42;;;8.35;;
32918;SDS011;19280;42.646;21.150;2023-02-22T08:56:19;19.85;;;10.15;;
32918;SDS011;19280;42.646;21.150;2023-02-22T08:58:47;15.50;;;8.63;;
32918;SDS011;19280;42.646;21.150;2023-02-22T09:01:13;19.30;;;8.55;;
32918;SDS011;19280;42.646;21.150;2023-02-22T09:03:39;12.45;;;7.32;;
32918;SDS011;19280;42.646;21.150;2023-02-22T09:06:05;15.32;;;6.90;;
32918;SDS011;19280;42.646;21.150;2023-02-22T09:08:32;16.77;;;9.52;;
32918;SDS011;19280;42.646;21.150;2023-02-22T09:10:58;14.75;;;8.10;;
32918;SDS011;19280;42.646;21.150;2023-02-22T09:13:24;10.55;;;7.00;;
32918;SDS011;19280;42.646;21.150;2023-02-22T09:15:50;16.58;;;6.13;;
32918;SDS011;19280;42.646;21.150;2023-02-22T09:18:16;14.13;;;6.95;;
32918;SDS011;19280;42.646;21.150;2023-02-22T09:20:42;11.82;;;5.88;;
32918;SDS011;19280;42.646;21.150;2023-02-22T09:23:09;11.30;;;6.38;;
32918;SDS011;19280;42.646;21.150;2023-02-22T09:25:35;10.80;;;5.80;;
32918;SDS011;19280;42.646;21.150;2023-02-22T09:28:02;7.75;;;5.05;;
32918;SDS011;19280;42.646;21.150;2023-02-22T09:30:32;12.35;;;5.47;;
32918;SDS011;19280;42.646;21.150;2023-02-22T09:33:03;11.10;;;6.43;;
32918;SDS011;19280;42.646;21.150;2023-02-22T09:35:29;14.43;;;6.75;;
32918;SDS011;19280;42.646;21.150;2023-02-22T09:38:00;8.83;;;6.40;;
32918;SDS011;19280;42.646;21.150;2023-02-22T09:40:28;8.38;;;5.88;;
32918;SDS011;19280;42.646;21.150;2023-02-22T09:43:03;13.30;;;6.18;;
32918;SDS011;19280;42.646;21.150;2023-02-22T09:45:33;11.57;;;6.45;;
32918;SDS011;19280;42.646;21.150;2023-02-22T09:48:02;9.88;;;5.25;;
32918;SDS011;19280;42.646;21.150;2023-02-22T09:50:33;11.95;;;5.63;;
32918;SDS011;19280;42.646;21.150;2023-02-22T09:53:11;10.38;;;6.25;;
32918;SDS011;19280;42.646;21.150;2023-02-22T09:55:45;10.32;;;6.00;;
32918;SDS011;19280;42.646;21.150;2023-02-22T09:58:21;11.75;;;6.55;;
32918;SDS011;19280;42.646;21.150;2023-02-22T10:00:50;8.32;;;6.03;;
32918;SDS011;19280;42.646;21.150;2023-02-22T10:03:21;8.70;;;5.75;;
32918;SDS011;19280;42.646;21.150;2023-02-22T10:05:57;7.53;;;5.30;;
32918;SDS011;19280;42.646;21.150;2023-02-22T10:08:31;12.07;;;5.25;;
32918;SDS011;19280;42.646;21.150;2023-02-22T10:18:56;9.65;;;5.30;;
32918;SDS011;19280;42.646;21.150;2023-02-22T10:26:31;8.80;;;4.88;;
32918;SDS011;19280;42.646;21.150;2023-02-22T10:29:34;11.07;;;5.47;;
32918;SDS011;19280;42.646;21.150;2023-02-22T10:31:52;9.80;;;5.57;;
32918;SDS011;19280;42.646;21.150;2023-02-22T10:34:23;6.40;;;4.65;;
32918;SDS011;19280;42.646;21.150;2023-02-22T10:36:50;10.00;;;4.50;;
32918;SDS011;19280;42.646;21.150;2023-02-22T10:39:32;13.23;;;5.25;;
32918;SDS011;19280;42.646;21.150;2023-02-22T10:42:00;10.57;;;4.72;;
32918;SDS011;19280;42.646;21.150;2023-02-22T10:44:33;10.88;;;4.93;;
32918;SDS011;19280;42.646;21.150;2023-02-22T10:46:59;12.48;;;5.22;;
32918;SDS011;19280;42.646;21.150;2023-02-22T10:49:26;7.63;;;4.78;;
32918;SDS011;19280;42.646;21.150;2023-02-22T10:51:59;11.85;;;5.30;;
32918;SDS011;19280;42.646;21.150;2023-02-22T10:54:27;12.73;;;5.03;;
32918;SDS011;19280;42.646;21.150;2023-02-22T10:56:55;9.77;;;5.07;;
32918;SDS011;19280;42.646;21.150;2023-02-22T10:59:30;12.45;;;4.57;;
32918;SDS011;19280;42.646;21.150;2023-02-22T11:01:57;8.93;;;4.60;;
32918;SDS011;19280;42.646;21.150;2023-02-22T11:04:23;10.05;;;4.95;;
32918;SDS011;19280;42.646;21.150;2023-02-22T11:07:18;9.98;;;5.70;;
32918;SDS011;19280;42.646;21.150;2023-02-22T11:09:45;14.75;;;6.10;;
32918;SDS011;19280;42.646;21.150;2023-02-22T11:12:24;14.73;;;6.32;;
32918;SDS011;19280;42.646;21.150;2023-02-22T11:14:51;19.55;;;6.35;;
32918;SDS011;19280;42.646;21.150;2023-02-22T11:17:27;13.38;;;5.70;;
32918;SDS011;19280;42.646;21.150;2023-02-22T11:19:54;12.70;;;6.05;;
32918;SDS011;19280;42.646;21.150;2023-02-22T11:22:25;16.08;;;6.05;;
32918;SDS011;19280;42.646;21.150;2023-02-22T11:24:56;13.45;;;5.72;;
32918;SDS011;19280;42.646;21.150;2023-02-22T11:30:07;17.70;;;6.50;;
32918;SDS011;19280;42.646;21.150;2023-02-22T11:32:35;14.30;;;5.43;;
32918;SDS011;19280;42.646;21.150;2023-02-22T11:38:09;11.25;;;4.97;;
32918;SDS011;19280;42.646;21.150;2023-02-22T11:40:35;15.35;;;6.53;;
32918;SDS011;19280;42.646;21.150;2023-02-22T11:43:08;19.65;;;8.77;;
32918;SDS011;19280;42.646;21.150;2023-02-22T11:45:36;12.18;;;6.03;;
32918;SDS011;19280;42.646;21.150;2023-02-22T11:48:03;14.80;;;6.22;;
32918;SDS011;19280;42.646;21.150;2023-02-22T11:55:32;12.40;;;4.38;;
32918;SDS011;19280;42.646;21.150;2023-02-22T12:09:07;16.92;;;4.68;;
32918;SDS011;19280;42.646;21.150;2023-02-22T12:19:26;14.98;;;5.13;;
32918;SDS011;19280;42.646;21.150;2023-02-22T12:22:07;20.27;;;4.53;;
32918;SDS011;19280;42.646;21.150;2023-02-22T12:24:45;14.02;;;4.32;;
32918;SDS011;19280;42.646;21.150;2023-02-22T12:27:14;20.30;;;5.63;;
32918;SDS011;19280;42.646;21.150;2023-02-22T12:29:43;20.00;;;5.75;;
32918;SDS011;19280;42.646;21.150;2023-02-22T12:37:24;22.20;;;5.00;;
32918;SDS011;19280;42.646;21.150;2023-02-22T12:39:57;27.65;;;6.10;;
32918;SDS011;19280;42.646;21.150;2023-02-22T12:42:26;15.50;;;5.40;;
32918;SDS011;19280;42.646;21.150;2023-02-22T12:45:04;16.75;;;5.60;;
32918;SDS011;19280;42.646;21.150;2023-02-22T12:47:36;15.63;;;4.50;;
32918;SDS011;19280;42.646;21.150;2023-02-22T12:53:19;16.20;;;5.28;;
32918;SDS011;19280;42.646;21.150;2023-02-22T12:55:48;16.40;;;4.82;;
32918;SDS011;19280;42.646;21.150;2023-02-22T13:05:54;19.77;;;5.70;;
32918;SDS011;19280;42.646;21.150;2023-02-22T13:15:54;15.48;;;4.93;;
32918;SDS011;19280;42.646;21.150;2023-02-22T13:18:27;19.80;;;5.70;;
32918;SDS011;19280;42.646;21.150;2023-02-22T13:28:59;13.10;;;4.82;;
32918;SDS011;19280;42.646;21.150;2023-02-22T13:52:36;23.23;;;5.97;;
32918;SDS011;19280;42.646;21.150;2023-02-22T13:55:04;25.83;;;5.97;;
32918;SDS011;19280;42.646;21.150;2023-02-22T14:05:45;16.70;;;4.88;;
32918;SDS011;19280;42.646;21.150;2023-02-22T14:10:44;17.15;;;5.38;;
32918;SDS011;19280;42.646;21.150;2023-02-22T14:13:11;22.00;;;4.75;;
32918;SDS011;19280;42.646;21.150;2023-02-22T14:21:11;15.63;;;6.10;;
32918;SDS011;19280;42.646;21.150;2023-02-22T14:31:22;22.85;;;6.18;;
32918;SDS011;19280;42.646;21.150;2023-02-22T14:39:07;18.67;;;5.68;;
32918;SDS011;19280;42.646;21.150;2023-02-22T14:41:34;12.18;;;4.15;;
32918;SDS011;19280;42.646;21.150;2023-02-22T14:44:01;11.15;;;4.50;;
32918;SDS011;19280;42.646;21.150;2023-02-22T14:46:30;9.80;;;4.18;;
32918;SDS011;19280;42.646;21.150;2023-02-22T14:48:59;19.98;;;4.78;;
32918;SDS011;19280;42.646;21.150;2023-02-22T14:51:29;17.85;;;5.60;;
32918;SDS011;19280;42.646;21.150;2023-02-22T15:01:34;20.63;;;4.60;;
32918;SDS011;19280;42.646;21.150;2023-02-22T15:04:23;13.18;;;5.10;;
32918;SDS011;19280;42.646;21.150;2023-02-22T15:06:50;18.88;;;4.57;;
32918;SDS011;19280;42.646;21.150;2023-02-22T15:09:21;16.05;;;6.03;;
32918;SDS011;19280;42.646;21.150;2023-02-22T15:14:29;15.10;;;4.55;;
32918;SDS011;19280;42.646;21.150;2023-02-22T15:17:01;15.75;;;5.20;;
32918;SDS011;19280;42.646;21.150;2023-02-22T15:19:29;16.58;;;6.00;;
32918;SDS011;19280;42.646;21.150;2023-02-22T15:21:56;26.20;;;6.97;;
32918;SDS011;19280;42.646;21.150;2023-02-22T15:24:24;28.35;;;10.60;;
32918;SDS011;19280;42.646;21.150;2023-02-22T15:26:50;25.88;;;7.95;;
32918;SDS011;19280;42.646;21.150;2023-02-22T15:31:43;16.05;;;6.72;;
32918;SDS011;19280;42.646;21.150;2023-02-22T15:36:40;28.58;;;8.20;;
32918;SDS011;19280;42.646;21.150;2023-02-22T15:39:17;36.85;;;8.38;;
32918;SDS011;19280;42.646;21.150;2023-02-22T15:41:43;31.20;;;8.77;;
32918;SDS011;19280;42.646;21.150;2023-02-22T15:44:09;37.85;;;8.57;;
32918;SDS011;19280;42.646;21.150;2023-02-22T15:46:39;28.15;;;8.82;;
32918;SDS011;19280;42.646;21.150;2023-02-22T15:49:26;32.72;;;8.30;;
32918;SDS011;19280;42.646;21.150;2023-02-22T15:52:01;25.55;;;7.63;;
32918;SDS011;19280;42.646;21.150;2023-02-22T15:54:27;31.83;;;6.60;;
32918;SDS011;19280;42.646;21.150;2023-02-22T15:56:55;14.57;;;6.65;;
32918;SDS011;19280;42.646;21.150;2023-02-22T15:59:21;27.92;;;11.13;;
32918;SDS011;19280;42.646;21.150;2023-02-22T16:01:53;55.60;;;29.58;;
32918;SDS011;19280;42.646;21.150;2023-02-22T16:04:21;58.38;;;27.55;;
32918;SDS011;19280;42.646;21.150;2023-02-22T16:06:47;51.78;;;22.45;;
32918;SDS011;19280;42.646;21.150;2023-02-22T16:09:16;59.45;;;24.48;;
32918;SDS011;19280;42.646;21.150;2023-02-22T16:11:46;83.95;;;31.98;;
32918;SDS011;19280;42.646;21.150;2023-02-22T16:19:50;65.20;;;17.05;;
32918;SDS011;19280;42.646;21.150;2023-02-22T16:24:50;61.40;;;17.45;;
32918;SDS011;19280;42.646;21.150;2023-02-22T16:27:19;91.13;;;21.35;;
32918;SDS011;19280;42.646;21.150;2023-02-22T16:32:31;79.38;;;19.15;;
32918;SDS011;19280;42.646;21.150;2023-02-22T16:34:57;100.88;;;30.25;;
32918;SDS011;19280;42.646;21.150;2023-02-22T16:37:23;183.48;;;82.63;;
32918;SDS011;19280;42.646;21.150;2023-02-22T16:39:52;144.30;;;54.00;;
32918;SDS011;19280;42.646;21.150;2023-02-22T16:42:19;103.60;;;33.50;;
32918;SDS011;19280;42.646;21.150;2023-02-22T16:44:48;86.78;;;32.38;;
32918;SDS011;19280;42.646;21.150;2023-02-22T16:47:15;97.78;;;35.38;;
32918;SDS011;19280;42.646;21.150;2023-02-22T16:49:41;111.85;;;37.90;;
32918;SDS011;19280;42.646;21.150;2023-02-22T16:52:07;108.35;;;41.92;;
32918;SDS011;19280;42.646;21.150;2023-02-22T16:54:43;117.65;;;45.03;;
32918;SDS011;19280;42.646;21.150;2023-02-22T16:57:16;123.72;;;47.78;;
32918;SDS011;19280;42.646;21.150;2023-02-22T16:59:43;113.78;;;49.08;;
32918;SDS011;19280;42.646;21.150;2023-02-22T17:02:12;120.80;;;50.58;;
32918;SDS011;19280;42.646;21.150;2023-02-22T17:04:39;120.63;;;51.60;;
32918;SDS011;19280;42.646;21.150;2023-02-22T17:07:13;122.85;;;52.78;;
32918;SDS011;19280;42.646;21.150;2023-02-22T17:09:39;103.97;;;41.53;;
32918;SDS011;19280;42.646;21.150;2023-02-22T17:12:05;82.65;;;38.80;;
32918;SDS011;19280;42.646;21.150;2023-02-22T17:14:32;96.40;;;46.38;;
32918;SDS011;19280;42.646;21.150;2023-02-22T17:16:59;97.10;;;43.55;;
32918;SDS011;19280;42.646;21.150;2023-02-22T17:19:25;111.40;;;48.15;;
32918;SDS011;19280;42.646;21.150;2023-02-22T17:21:51;117.07;;;47.45;;
32918;SDS011;19280;42.646;21.150;2023-02-22T17:24:21;138.63;;;58.17;;
32918;SDS011;19280;42.646;21.150;2023-02-22T17:26:48;146.88;;;64.78;;
32918;SDS011;19280;42.646;21.150;2023-02-22T17:29:15;135.52;;;61.47;;